sensor_id;sensor_type;location;lat;lon;timestamp;pressure;altitude;pressure_sealevel;temperature;humidity
56928;BME280;60850;52.502;13.426;2023-12-28T00:00:22;100683.13;;;3.88;100.00
56928;BME280;60850;52.502;13.426;2023-12-28T00:03:09;100680.50;;;3.96;100.00
56928;BME280;60850;52.502;13.426;2023-12-28T00:05:37;100689.28;;;4.04;100.00
56928;BME280;60850;52.502;13.426;2023-12-28T00:08:05;100689.25;;;4.05;100.00
56928;BME280;60850;52.502;13.426;2023-12-28T00:10:32;100676.97;;;4.10;100.00
56928;BME280;60850;52.502;13.426;2023-12-28T00:12:59;100668.16;;;4.08;100.00
56928;BME280;60850;52.502;13.426;2023-12-28T00:15:26;100665.50;;;4.13;100.00
56928;BME280;60850;52.502;13.426;2023-12-28T00:17:53;100659.34;;;4.14;100.00
56928;BME280;60850;52.502;13.426;2023-12-28T00:20:20;100647.03;;;4.08;100.00
56928;BME280;60850;52.502;13.426;2023-12-28T00:22:49;100632.09;;;4.12;100.00
56928;BME280;60850;52.502;13.426;2023-12-28T00:25:16;100625.94;;;4.18;100.00
56928;BME280;60850;52.502;13.426;2023-12-28T00:27:43;100630.34;;;4.17;100.00
56928;BME280;60850;52.502;13.426;2023-12-28T00:30:12;100639.13;;;4.18;100.00
56928;BME280;60850;52.502;13.426;2023-12-28T00:32:39;100640.88;;;4.19;100.00
56928;BME280;60850;52.502;13.426;2023-12-28T00:35:09;100638.22;;;4.16;100.00
56928;BME280;60850;52.502;13.426;2023-12-28T00:37:35;100631.22;;;4.18;100.00
56928;BME280;60850;52.502;13.426;2023-12-28T00:40:05;100621.50;;;4.21;100.00
56928;BME280;60850;52.502;13.426;2023-12-28T00:42:35;100622.41;;;4.20;100.00
56928;BME280;60850;52.502;13.426;2023-12-28T00:45:02;100618.00;;;4.22;100.00
56928;BME280;60850;52.502;13.426;2023-12-28T00:47:29;100619.75;;;4.20;100.00
56928;BME280;60850;52.502;13.426;2023-12-28T00:49:56;100626.81;;;4.18;100.00
56928;BME280;60850;52.502;13.426;2023-12-28T00:52:25;100621.53;;;4.12;100.00
56928;BME280;60850;52.502;13.426;2023-12-28T00:54:52;100625.06;;;4.14;100.00
56928;BME280;60850;52.502;13.426;2023-12-28T00:57:23;100636.50;;;4.18;100.00
56928;BME280;60850;52.502;13.426;2023-12-28T00:59:50;100636.47;;;4.19;100.00
56928;BME280;60850;52.502;13.426;2023-12-28T01:02:17;100626.81;;;4.18;100.00
56928;BME280;60850;52.502;13.426;2023-12-28T01:04:44;100643.53;;;4.14;100.00
56928;BME280;60850;52.502;13.426;2023-12-28T01:07:11;100642.66;;;4.18;100.00
56928;BME280;60850;52.502;13.426;2023-12-28T01:09:38;100639.13;;;4.16;100.00
56928;BME280;60850;52.502;13.426;2023-12-28T01:12:06;100647.00;;;4.22;100.00
56928;BME280;60850;52.502;13.426;2023-12-28T01:14:34;100639.97;;;4.21;100.00
56928;BME280;60850;52.502;13.426;2023-12-28T01:17:01;100637.34;;;4.20;100.00
56928;BME280;60850;52.502;13.426;2023-12-28T01:19:28;100631.22;;;4.18;100.00
56928;BME280;60850;52.502;13.426;2023-12-28T01:21:55;100641.78;;;4.11;100.00
56928;BME280;60850;52.502;13.426;2023-12-28T01:24:22;100635.63;;;4.17;100.00
56928;BME280;60850;52.502;13.426;2023-12-28T01:26:50;100635.59;;;4.26;100.00
56928;BME280;60850;52.502;13.426;2023-12-28T01:29:17;100630.31;;;4.23;100.00
56928;BME280;60850;52.502;13.426;2023-12-28T01:31:45;100631.16;;;4.28;100.00
56928;BME280;60850;52.502;13.426;2023-12-28T01:34:12;100625.03;;;4.32;100.00
56928;BME280;60850;52.502;13.426;2023-12-28T01:36:39;100632.94;;;4.31;100.00
56928;BME280;60850;52.502;13.426;2023-12-28T01:39:09;100630.31;;;4.31;100.00
56928;BME280;60850;52.502;13.426;2023-12-28T01:41:36;100633.75;;;4.44;100.00
56928;BME280;60850;52.502;13.426;2023-12-28T01:44:03;100630.25;;;4.41;100.00
56928;BME280;60850;52.502;13.426;2023-12-28T01:46:30;100610.88;;;4.43;100.00
56928;BME280;60850;52.502;13.426;2023-12-28T01:49:00;100609.09;;;4.49;100.00
56928;BME280;60850;52.502;13.426;2023-12-28T01:51:28;100600.31;;;4.52;100.00
56928;BME280;60850;52.502;13.426;2023-12-28T01:53:55;100576.59;;;4.41;100.00
56928;BME280;60850;52.502;13.426;2023-12-28T01:56:22;100573.88;;;4.56;100.00
56928;BME280;60850;52.502;13.426;2023-12-28T01:58:50;100574.75;;;4.57;100.00
56928;BME280;60850;52.502;13.426;2023-12-28T02:01:18;100566.00;;;4.53;100.00
56928;BME280;60850;52.502;13.426;2023-12-28T02:03:45;100564.19;;;4.57;100.00
56928;BME280;60850;52.502;13.426;2023-12-28T02:06:14;100560.63;;;4.67;100.00
56928;BME280;60850;52.502;13.426;2023-12-28T02:08:43;100551.81;;;4.73;100.00
56928;BME280;60850;52.502;13.426;2023-12-28T02:11:10;100551.84;;;4.66;100.00
56928;BME280;60850;52.502;13.426;2023-12-28T02:13:38;100558.81;;;4.72;100.00
56928;BME280;60850;52.502;13.426;2023-12-28T02:16:10;100584.34;;;4.76;100.00
56928;BME280;60850;52.502;13.426;2023-12-28T02:18:42;100593.13;;;4.81;100.00
56928;BME280;60850;52.502;13.426;2023-12-28T02:21:11;100605.41;;;4.88;100.00
56928;BME280;60850;52.502;13.426;2023-12-28T02:23:46;100609.81;;;4.89;100.00
56928;BME280;60850;52.502;13.426;2023-12-28T02:26:14;100605.44;;;4.87;100.00
56928;BME280;60850;52.502;13.426;2023-12-28T02:28:41;100614.22;;;4.89;100.00
56928;BME280;60850;52.502;13.426;2023-12-28T02:31:21;100599.19;;;4.97;100.00
56928;BME280;60850;52.502;13.426;2023-12-28T02:33:53;100591.22;;;5.08;100.00
56928;BME280;60850;52.502;13.426;2023-12-28T02:36:26;100592.94;;;5.15;100.00
56928;BME280;60850;52.502;13.426;2023-12-28T02:38:56;100582.28;;;5.26;100.00
56928;BME280;60850;52.502;13.426;2023-12-28T02:41:26;100594.53;;;5.34;100.00
56928;BME280;60850;52.502;13.426;2023-12-28T02:43:53;100581.22;;;5.46;100.00
56928;BME280;60850;52.502;13.426;2023-12-28T02:46:20;100579.31;;;5.62;100.00
56928;BME280;60850;52.502;13.426;2023-12-28T02:48:48;100576.59;;;5.70;100.00
56928;BME280;60850;52.502;13.426;2023-12-28T02:51:15;100572.94;;;5.83;100.00
56928;BME280;60850;52.502;13.426;2023-12-28T02:53:43;100594.03;;;5.95;100.00
56928;BME280;60850;52.502;13.426;2023-12-28T02:56:10;100593.94;;;6.04;100.00
56928;BME280;60850;52.502;13.426;2023-12-28T02:58:38;100577.91;;;6.18;100.00
56928;BME280;60850;52.502;13.426;2023-12-28T03:01:05;100581.38;;;6.23;100.00
56928;BME280;60850;52.502;13.426;2023-12-28T03:03:32;100573.38;;;6.29;100.00
56928;BME280;60850;52.502;13.426;2023-12-28T03:05:59;100581.22;;;6.37;100.00
56928;BME280;60850;52.502;13.426;2023-12-28T03:08:26;100584.72;;;6.42;100.00
56928;BME280;60850;52.502;13.426;2023-12-28T03:10:53;100595.19;;;6.48;100.00
56928;BME280;60850;52.502;13.426;2023-12-28T03:13:21;100583.66;;;6.54;100.00
56928;BME280;60850;52.502;13.426;2023-12-28T03:15:49;100588.00;;;6.63;100.00
56928;BME280;60850;52.502;13.426;2023-12-28T03:18:16;100582.66;;;6.64;100.00
56928;BME280;60850;52.502;13.426;2023-12-28T03:20:43;100586.13;;;6.71;100.00
56928;BME280;60850;52.502;13.426;2023-12-28T03:23:11;100570.94;;;6.82;100.00
56928;BME280;60850;52.502;13.426;2023-12-28T03:25:40;100568.25;;;6.85;100.00
56928;BME280;60850;52.502;13.426;2023-12-28T03:28:08;100577.94;;;6.86;100.00
56928;BME280;60850;52.502;13.426;2023-12-28T03:30:34;100579.66;;;6.88;100.00
56928;BME280;60850;52.502;13.426;2023-12-28T03:33:03;100576.91;;;6.96;100.00
56928;BME280;60850;52.502;13.426;2023-12-28T03:35:30;100574.22;;;6.99;100.00
56928;BME280;60850;52.502;13.426;2023-12-28T03:37:57;100572.38;;;7.04;100.00
56928;BME280;60850;52.502;13.426;2023-12-28T03:40:24;100588.13;;;7.15;100.00
56928;BME280;60850;52.502;13.426;2023-12-28T03:42:51;100586.34;;;7.15;100.00
56928;BME280;60850;52.502;13.426;2023-12-28T03:45:18;100581.00;;;7.19;100.00
56928;BME280;60850;52.502;13.426;2023-12-28T03:47:45;100587.13;;;7.22;100.00
56928;BME280;60850;52.502;13.426;2023-12-28T03:50:14;100591.63;;;7.17;100.00
56928;BME280;60850;52.502;13.426;2023-12-28T03:52:41;100585.53;;;7.10;100.00
56928;BME280;60850;52.502;13.426;2023-12-28T03:55:08;100594.50;;;7.02;100.00
56928;BME280;60850;52.502;13.426;2023-12-28T03:57:35;100600.72;;;7.01;100.00
56928;BME280;60850;52.502;13.426;2023-12-28T04:00:02;100590.19;;;6.95;100.00
56928;BME280;60850;52.502;13.426;2023-12-28T04:02:29;100604.28;;;6.97;100.00
56928;BME280;60850;52.502;13.426;2023-12-28T04:04:57;100584.88;;;6.98;100.00
56928;BME280;60850;52.502;13.426;2023-12-28T04:07:26;100583.97;;;6.99;100.00
56928;BME280;60850;52.502;13.426;2023-12-28T04:09:52;100580.41;;;7.00;100.00
56928;BME280;60850;52.502;13.426;2023-12-28T04:12:21;100581.31;;;6.99;100.00
56928;BME280;60850;52.502;13.426;2023-12-28T04:14:48;100590.03;;;7.04;100.00
56928;BME280;60850;52.502;13.426;2023-12-28T04:17:15;100586.53;;;7.05;100.00
56928;BME280;60850;52.502;13.426;2023-12-28T04:19:42;100589.19;;;7.05;100.00
56928;BME280;60850;52.502;13.426;2023-12-28T04:22:09;100606.81;;;7.04;100.00
56928;BME280;60850;52.502;13.426;2023-12-28T04:24:38;100608.50;;;7.11;100.00
56928;BME280;60850;52.502;13.426;2023-12-28T04:27:05;100605.84;;;7.13;100.00
56928;BME280;60850;52.502;13.426;2023-12-28T04:29:31;100612.75;;;7.23;100.00
56928;BME280;60850;52.502;13.426;2023-12-28T04:31:59;100603.00;;;7.24;100.00
56928;BME280;60850;52.502;13.426;2023-12-28T04:34:25;100603.88;;;7.27;100.00
56928;BME280;60850;52.502;13.426;2023-12-28T04:36:52;100606.50;;;7.26;100.00
56928;BME280;60850;52.502;13.426;2023-12-28T04:39:19;100602.97;;;7.28;100.00
56928;BME280;60850;52.502;13.426;2023-12-28T04:41:48;100607.25;;;7.35;100.00
56928;BME280;60850;52.502;13.426;2023-12-28T04:44:15;100604.56;;;7.40;100.00
56928;BME280;60850;52.502;13.426;2023-12-28T04:46:42;100599.22;;;7.41;100.00
56928;BME280;60850;52.502;13.426;2023-12-28T04:49:10;100589.38;;;7.47;100.00
56928;BME280;60850;52.502;13.426;2023-12-28T04:51:42;100600.88;;;7.49;100.00
56928;BME280;60850;52.502;13.426;2023-12-28T04:54:09;100604.44;;;7.46;100.00
56928;BME280;60850;52.502;13.426;2023-12-28T04:56:36;100605.28;;;7.50;100.00
56928;BME280;60850;52.502;13.426;2023-12-28T04:59:04;100603.44;;;7.55;100.00
56928;BME280;60850;52.502;13.426;2023-12-28T05:01:31;100609.63;;;7.52;100.00
56928;BME280;60850;52.502;13.426;2023-12-28T05:03:58;100612.28;;;7.52;100.00
56928;BME280;60850;52.502;13.426;2023-12-28T05:06:27;100619.28;;;7.58;100.00
56928;BME280;60850;52.502;13.426;2023-12-28T05:08:54;100619.31;;;7.56;100.00
56928;BME280;60850;52.502;13.426;2023-12-28T05:11:21;100621.91;;;7.59;100.00
56928;BME280;60850;52.502;13.426;2023-12-28T05:13:48;100625.53;;;7.55;100.00
56928;BME280;60850;52.502;13.426;2023-12-28T05:16:16;100629.09;;;7.54;100.00
56928;BME280;60850;52.502;13.426;2023-12-28T05:18:43;100633.66;;;7.43;100.00
56928;BME280;60850;52.502;13.426;2023-12-28T05:21:11;100642.47;;;7.45;100.00
56928;BME280;60850;52.502;13.426;2023-12-28T05:23:38;100632.75;;;7.44;100.00
56928;BME280;60850;52.502;13.426;2023-12-28T05:26:05;100627.44;;;7.46;100.00
56928;BME280;60850;52.502;13.426;2023-12-28T05:28:32;100639.81;;;7.45;100.00
56928;BME280;60850;52.502;13.426;2023-12-28T05:30:59;100641.63;;;7.43;100.00
56928;BME280;60850;52.502;13.426;2023-12-28T05:33:27;100628.34;;;7.44;100.00
56928;BME280;60850;52.502;13.426;2023-12-28T05:35:54;100637.25;;;7.40;100.00
56928;BME280;60850;52.502;13.426;2023-12-28T05:38:21;100644.31;;;7.41;100.00
56928;BME280;60850;52.502;13.426;2023-12-28T05:40:48;100645.19;;;7.42;100.00
56928;BME280;60850;52.502;13.426;2023-12-28T05:43:15;100654.06;;;7.38;100.00
56928;BME280;60850;52.502;13.426;2023-12-28T05:45:42;100669.97;;;7.41;100.00
56928;BME280;60850;52.502;13.426;2023-12-28T05:48:09;100674.38;;;7.39;100.00
56928;BME280;60850;52.502;13.426;2023-12-28T05:50:38;100671.72;;;7.39;100.00
56928;BME280;60850;52.502;13.426;2023-12-28T05:53:05;100681.53;;;7.35;100.00
56928;BME280;60850;52.502;13.426;2023-12-28T05:55:32;100684.13;;;7.40;100.00
56928;BME280;60850;52.502;13.426;2023-12-28T05:57:59;100688.53;;;7.41;100.00
56928;BME280;60850;52.502;13.426;2023-12-28T06:00:26;100696.47;;;7.41;100.00
56928;BME280;60850;52.502;13.426;2023-12-28T06:02:53;100695.47;;;7.47;100.00
56928;BME280;60850;52.502;13.426;2023-12-28T06:05:20;100705.16;;;7.51;100.00
56928;BME280;60850;52.502;13.426;2023-12-28T06:07:48;100706.88;;;7.53;100.00
56928;BME280;60850;52.502;13.426;2023-12-28T06:10:15;100702.53;;;7.49;100.00
56928;BME280;60850;52.502;13.426;2023-12-28T06:12:41;100706.94;;;7.50;100.00
56928;BME280;60850;52.502;13.426;2023-12-28T06:15:09;100709.56;;;7.52;100.00
56928;BME280;60850;52.502;13.426;2023-12-28T06:17:36;100711.25;;;7.57;100.00
56928;BME280;60850;52.502;13.426;2023-12-28T06:20:04;100710.34;;;7.61;100.00
56928;BME280;60850;52.502;13.426;2023-12-28T06:22:31;100704.91;;;7.67;100.00
56928;BME280;60850;52.502;13.426;2023-12-28T06:25:00;100711.09;;;7.68;100.00
56928;BME280;60850;52.502;13.426;2023-12-28T06:27:27;100717.38;;;7.62;100.00
56928;BME280;60850;52.502;13.426;2023-12-28T06:29:54;100716.50;;;7.62;100.00
56928;BME280;60850;52.502;13.426;2023-12-28T06:32:21;100711.28;;;7.56;100.00
56928;BME280;60850;52.502;13.426;2023-12-28T06:34:48;100711.34;;;7.51;100.00
56928;BME280;60850;52.502;13.426;2023-12-28T06:37:15;100706.00;;;7.56;100.00
56928;BME280;60850;52.502;13.426;2023-12-28T06:39:43;100706.88;;;7.56;100.00
56928;BME280;60850;52.502;13.426;2023-12-28T06:42:11;100703.31;;;7.57;100.00
56928;BME280;60850;52.502;13.426;2023-12-28T06:44:38;100697.19;;;7.52;100.00
56928;BME280;60850;52.502;13.426;2023-12-28T06:47:05;100704.22;;;7.56;100.00
56928;BME280;60850;52.502;13.426;2023-12-28T06:49:32;100706.88;;;7.56;100.00
56928;BME280;60850;52.502;13.426;2023-12-28T06:51:59;100713.97;;;7.54;100.00
56928;BME280;60850;52.502;13.426;2023-12-28T06:54:26;100709.47;;;7.58;100.00
56928;BME280;60850;52.502;13.426;2023-12-28T06:56:52;100711.25;;;7.57;100.00
56928;BME280;60850;52.502;13.426;2023-12-28T06:59:21;100707.75;;;7.55;100.00
56928;BME280;60850;52.502;13.426;2023-12-28T07:01:48;100717.44;;;7.58;100.00
56928;BME280;60850;52.502;13.426;2023-12-28T07:04:15;100718.31;;;7.58;100.00
56928;BME280;60850;52.502;13.426;2023-12-28T07:06:42;100717.47;;;7.56;100.00
56928;BME280;60850;52.502;13.426;2023-12-28T07:09:09;100705.09;;;7.57;100.00
56928;BME280;60850;52.502;13.426;2023-12-28T07:11:36;100712.94;;;7.63;100.00
56928;BME280;60850;52.502;13.426;2023-12-28T07:14:03;100713.84;;;7.60;100.00
56928;BME280;60850;52.502;13.426;2023-12-28T07:16:32;100735.06;;;7.63;100.00
56928;BME280;60850;52.502;13.426;2023-12-28T07:18:59;100735.06;;;7.63;100.00
56928;BME280;60850;52.502;13.426;2023-12-28T07:21:26;100739.47;;;7.63;100.00
56928;BME280;60850;52.502;13.426;2023-12-28T07:23:53;100733.38;;;7.56;100.00
56928;BME280;60850;52.502;13.426;2023-12-28T07:26:20;100739.56;;;7.57;100.00
56928;BME280;60850;52.502;13.426;2023-12-28T07:28:47;100736.09;;;7.52;100.00
56928;BME280;60850;52.502;13.426;2023-12-28T07:31:22;100742.25;;;7.55;100.00
56928;BME280;60850;52.502;13.426;2023-12-28T07:33:51;100728.16;;;7.50;100.00
56928;BME280;60850;52.502;13.426;2023-12-28T07:36:18;100741.38;;;7.55;100.00
56928;BME280;60850;52.502;13.426;2023-12-28T07:38:45;100738.66;;;7.58;100.00
56928;BME280;60850;52.502;13.426;2023-12-28T07:41:12;100743.00;;;7.63;100.00
56928;BME280;60850;52.502;13.426;2023-12-28T07:43:39;100742.09;;;7.66;100.00
56928;BME280;60850;52.502;13.426;2023-12-28T07:46:06;100756.31;;;7.60;100.00
56928;BME280;60850;52.502;13.426;2023-12-28T07:48:33;100749.13;;;7.67;100.00
56928;BME280;60850;52.502;13.426;2023-12-28T07:51:05;100761.50;;;7.69;100.00
56928;BME280;60850;52.502;13.426;2023-12-28T07:53:33;100767.72;;;7.68;100.00
56928;BME280;60850;52.502;13.426;2023-12-28T07:56:00;100772.09;;;7.71;100.00
56928;BME280;60850;52.502;13.426;2023-12-28T07:58:27;100777.44;;;7.69;100.00
56928;BME280;60850;52.502;13.426;2023-12-28T08:00:54;100781.84;;;7.69;100.00
56928;BME280;60850;52.502;13.426;2023-12-28T08:03:21;100783.97;;;8.06;100.00
56928;BME280;60850;52.502;13.426;2023-12-28T08:05:47;100776.66;;;8.20;100.00
56928;BME280;60850;52.502;13.426;2023-12-28T08:08:16;100774.00;;;8.20;100.00
56928;BME280;60850;52.502;13.426;2023-12-28T08:10:43;100783.66;;;8.24;100.00
56928;BME280;60850;52.502;13.426;2023-12-28T08:13:10;100786.13;;;8.38;100.00
56928;BME280;60850;52.502;13.426;2023-12-28T08:15:37;100795.03;;;8.35;100.00
56928;BME280;60850;52.502;13.426;2023-12-28T08:18:04;100797.50;;;8.46;100.00
56928;BME280;60850;52.502;13.426;2023-12-28T08:20:31;100796.44;;;8.56;100.00
56928;BME280;60850;52.502;13.426;2023-12-28T08:22:58;100814.97;;;8.59;100.00
56928;BME280;60850;52.502;13.426;2023-12-28T08:25:26;100811.63;;;8.48;100.00
56928;BME280;60850;52.502;13.426;2023-12-28T08:27:53;100808.88;;;8.52;100.00
56928;BME280;60850;52.502;13.426;2023-12-28T08:30:21;100806.31;;;8.48;100.00
56928;BME280;60850;52.502;13.426;2023-12-28T08:32:48;100801.78;;;8.55;100.00
56928;BME280;60850;52.502;13.426;2023-12-28T08:35:15;100804.47;;;8.53;100.00
56928;BME280;60850;52.502;13.426;2023-12-28T08:37:42;100805.97;;;8.69;100.00
56928;BME280;60850;52.502;13.426;2023-12-28T08:40:09;100797.84;;;8.77;100.00
56928;BME280;60850;52.502;13.426;2023-12-28T08:42:38;100806.41;;;8.93;100.00
56928;BME280;60850;52.502;13.426;2023-12-28T08:45:05;100810.09;;;8.86;100.00
56928;BME280;60850;52.502;13.426;2023-12-28T08:47:33;100807.19;;;8.98;100.00
56928;BME280;60850;52.502;13.426;2023-12-28T08:49:59;100806.47;;;8.90;100.00
56928;BME280;60850;52.502;13.426;2023-12-28T08:52:26;100809.97;;;8.92;100.00
56928;BME280;60850;52.502;13.426;2023-12-28T08:54:53;100814.59;;;8.80;100.00
56928;BME280;60850;52.502;13.426;2023-12-28T08:57:21;100820.00;;;8.76;100.00
56928;BME280;60850;52.502;13.426;2023-12-28T08:59:49;100815.50;;;8.79;100.00
56928;BME280;60850;52.502;13.426;2023-12-28T09:02:16;100813.88;;;8.72;100.00
56928;BME280;60850;52.502;13.426;2023-12-28T09:04:44;100818.44;;;8.64;100.00
56928;BME280;60850;52.502;13.426;2023-12-28T09:07:11;100829.91;;;8.68;100.00
56928;BME280;60850;52.502;13.426;2023-12-28T09:09:38;100827.13;;;8.75;100.00
56928;BME280;60850;52.502;13.426;2023-12-28T09:12:06;100826.22;;;8.76;100.00
56928;BME280;60850;52.502;13.426;2023-12-28T09:14:32;100835.94;;;8.77;100.00
56928;BME280;60850;52.502;13.426;2023-12-28T09:17:01;100841.31;;;8.74;100.00
56928;BME280;60850;52.502;13.426;2023-12-28T09:19:28;100836.63;;;8.89;100.00
56928;BME280;60850;52.502;13.426;2023-12-28T09:21:55;100833.28;;;8.77;100.00
56928;BME280;60850;52.502;13.426;2023-12-28T09:24:22;100830.53;;;8.82;100.00
56928;BME280;60850;52.502;13.426;2023-12-28T09:26:49;100834.06;;;8.83;100.00
56928;BME280;60850;52.502;13.426;2023-12-28T09:29:16;100829.31;;;9.00;100.00
56928;BME280;60850;52.502;13.426;2023-12-28T09:31:43;100825.22;;;8.80;100.00
56928;BME280;60850;52.502;13.426;2023-12-28T09:34:13;100819.81;;;8.88;100.00
56928;BME280;60850;52.502;13.426;2023-12-28T09:36:40;100832.25;;;8.85;100.00
56928;BME280;60850;52.502;13.426;2023-12-28T09:39:07;100830.59;;;8.79;100.00
56928;BME280;60850;52.502;13.426;2023-12-28T09:41:36;100825.50;;;8.65;100.00
56928;BME280;60850;52.502;13.426;2023-12-28T09:44:09;100817.50;;;8.68;100.00
56928;BME280;60850;52.502;13.426;2023-12-28T09:46:41;100807.88;;;8.60;100.00
56928;BME280;60850;52.502;13.426;2023-12-28T09:49:08;100816.81;;;8.56;100.00
56928;BME280;60850;52.502;13.426;2023-12-28T09:51:36;100819.88;;;8.84;100.00
56928;BME280;60850;52.502;13.426;2023-12-28T09:54:03;100819.38;;;8.62;100.00
56928;BME280;60850;52.502;13.426;2023-12-28T09:56:32;100816.66;;;8.65;100.00
56928;BME280;60850;52.502;13.426;2023-12-28T09:58:59;100810.72;;;8.49;100.00
56928;BME280;60850;52.502;13.426;2023-12-28T10:01:26;100809.88;;;8.47;100.00
56928;BME280;60850;52.502;13.426;2023-12-28T10:03:53;100809.78;;;8.53;100.00
56928;BME280;60850;52.502;13.426;2023-12-28T10:06:21;100819.66;;;8.45;100.00
56928;BME280;60850;52.502;13.426;2023-12-28T10:08:49;100806.53;;;8.36;100.00
56928;BME280;60850;52.502;13.426;2023-12-28T10:11:17;100810.03;;;8.38;100.00
56928;BME280;60850;52.502;13.426;2023-12-28T10:13:44;100807.97;;;8.55;100.00
56928;BME280;60850;52.502;13.426;2023-12-28T10:16:12;100807.94;;;8.57;100.00
56928;BME280;60850;52.502;13.426;2023-12-28T10:18:40;100801.91;;;8.47;100.00
56928;BME280;60850;52.502;13.426;2023-12-28T10:21:08;100803.63;;;8.49;100.00
56928;BME280;60850;52.502;13.426;2023-12-28T10:23:35;100802.59;;;8.58;100.00
56928;BME280;60850;52.502;13.426;2023-12-28T10:26:05;100803.47;;;8.60;100.00
56928;BME280;60850;52.502;13.426;2023-12-28T10:28:32;100802.66;;;8.55;100.00
56928;BME280;60850;52.502;13.426;2023-12-28T10:30:59;100803.38;;;8.65;100.00
56928;BME280;60850;52.502;13.426;2023-12-28T10:33:26;100799.91;;;8.60;100.00
56928;BME280;60850;52.502;13.426;2023-12-28T10:35:58;100807.72;;;8.70;100.00
56928;BME280;60850;52.502;13.426;2023-12-28T10:38:25;100797.16;;;8.67;100.00
56928;BME280;60850;52.502;13.426;2023-12-28T10:40:55;100787.28;;;8.72;100.00
56928;BME280;60850;52.502;13.426;2023-12-28T10:43:23;100799.75;;;8.69;100.00
56928;BME280;60850;52.502;13.426;2023-12-28T10:45:51;100796.22;;;8.68;100.00
56928;BME280;60850;52.502;13.426;2023-12-28T10:48:26;100787.34;;;8.69;100.00
56928;BME280;60850;52.502;13.426;2023-12-28T10:50:57;100793.56;;;8.68;100.00
56928;BME280;60850;52.502;13.426;2023-12-28T10:53:34;100785.34;;;8.80;100.00
56928;BME280;60850;52.502;13.426;2023-12-28T10:56:17;100790.75;;;8.77;100.00
56928;BME280;60850;52.502;13.426;2023-12-28T10:58:49;100797.06;;;8.70;100.00
56928;BME280;60850;52.502;13.426;2023-12-28T11:01:21;100791.59;;;8.79;100.00
56928;BME280;60850;52.502;13.426;2023-12-28T11:03:53;100792.59;;;8.74;100.00
56928;BME280;60850;52.502;13.426;2023-12-28T11:06:25;100791.28;;;8.95;100.00
56928;BME280;60850;52.502;13.426;2023-12-28T11:08:54;100793.91;;;8.98;100.00
56928;BME280;60850;52.502;13.426;2023-12-28T11:11:23;100799.31;;;8.93;100.00
56928;BME280;60850;52.502;13.426;2023-12-28T11:13:52;100795.66;;;8.99;100.00
56928;BME280;60850;52.502;13.426;2023-12-28T11:16:21;100800.16;;;8.95;100.00
56928;BME280;60850;52.502;13.426;2023-12-28T11:18:49;100791.94;;;9.07;100.00
56928;BME280;60850;52.502;13.426;2023-12-28T11:21:25;100794.56;;;9.09;100.00
56928;BME280;60850;52.502;13.426;2023-12-28T11:23:53;100791.63;;;9.24;100.00
56928;BME280;60850;52.502;13.426;2023-12-28T11:26:21;100788.63;;;9.40;100.00
56928;BME280;60850;52.502;13.426;2023-12-28T11:28:49;100788.56;;;9.43;100.00
56928;BME280;60850;52.502;13.426;2023-12-28T11:31:17;100787.53;;;9.50;100.00
56928;BME280;60850;52.502;13.426;2023-12-28T11:33:45;100782.94;;;9.56;100.00
56928;BME280;60850;52.502;13.426;2023-12-28T11:36:19;100785.91;;;9.83;100.00
56928;BME280;60850;52.502;13.426;2023-12-28T11:38:50;100780.84;;;9.71;100.00
56928;BME280;60850;52.502;13.426;2023-12-28T11:41:20;100785.31;;;9.70;100.00
56928;BME280;60850;52.502;13.426;2023-12-28T11:43:51;100777.16;;;9.78;100.00
56928;BME280;60850;52.502;13.426;2023-12-28T11:46:18;100774.94;;;9.97;100.00
56928;BME280;60850;52.502;13.426;2023-12-28T11:48:46;100764.53;;;9.87;100.00
56928;BME280;60850;52.502;13.426;2023-12-28T11:51:13;100771.06;;;9.73;100.00
56928;BME280;60850;52.502;13.426;2023-12-28T11:53:41;100763.09;;;9.71;100.00
56928;BME280;60850;52.502;13.426;2023-12-28T11:56:09;100763.13;;;9.70;100.00
56928;BME280;60850;52.502;13.426;2023-12-28T11:58:36;100754.28;;;9.69;100.00
56928;BME280;60850;52.502;13.426;2023-12-28T12:01:03;100747.25;;;9.65;100.00
56928;BME280;60850;52.502;13.426;2023-12-28T12:03:30;100731.53;;;9.54;100.00
56928;BME280;60850;52.502;13.426;2023-12-28T12:05:57;100730.81;;;9.48;100.00
56928;BME280;60850;52.502;13.426;2023-12-28T12:08:24;100727.28;;;9.47;100.00
56928;BME280;60850;52.502;13.426;2023-12-28T12:10:59;100723.81;;;9.42;100.00
56928;BME280;60850;52.502;13.426;2023-12-28T12:13:28;100723.88;;;9.41;100.00
56928;BME280;60850;52.502;13.426;2023-12-28T12:15:55;100716.81;;;9.40;100.00
56928;BME280;60850;52.502;13.426;2023-12-28T12:18:22;100726.59;;;9.38;100.00
56928;BME280;60850;52.502;13.426;2023-12-28T12:20:49;100717.84;;;9.32;100.00
56928;BME280;60850;52.502;13.426;2023-12-28T12:23:16;100716.09;;;9.31;100.00
56928;BME280;60850;52.502;13.426;2023-12-28T12:25:43;100721.50;;;9.27;100.00
56928;BME280;60850;52.502;13.426;2023-12-28T12:28:11;100726.69;;;9.33;100.00
56928;BME280;60850;52.502;13.426;2023-12-28T12:30:40;100721.34;;;9.34;100.00
56928;BME280;60850;52.502;13.426;2023-12-28T12:33:07;100729.31;;;9.34;100.00
56928;BME280;60850;52.502;13.426;2023-12-28T12:35:35;100731.94;;;9.36;100.00
56928;BME280;60850;52.502;13.426;2023-12-28T12:38:02;100728.41;;;9.35;100.00
56928;BME280;60850;52.502;13.426;2023-12-28T12:40:29;100736.38;;;9.35;100.00
56928;BME280;60850;52.502;13.426;2023-12-28T12:42:58;100738.25;;;9.32;100.00